sensor_id;sensor_type;location;lat;lon;timestamp;temperature;humidity
23715;DHT22;12036;50.858;4.472;2022-11-15T00:02:22;12.10;99.90
23715;DHT22;12036;50.858;4.472;2022-11-15T00:04:47;12.10;99.90
23715;DHT22;12036;50.858;4.472;2022-11-15T00:07:13;12.10;99.90
23715;DHT22;12036;50.858;4.472;2022-11-15T00:09:38;12.10;99.90
23715;DHT22;12036;50.858;4.472;2022-11-15T00:12:04;12.20;99.90
23715;DHT22;12036;50.858;4.472;2022-11-15T00:14:30;12.30;99.90
23715;DHT22;12036;50.858;4.472;2022-11-15T00:16:55;12.30;99.90
23715;DHT22;12036;50.858;4.472;2022-11-15T00:19:21;12.30;99.90
23715;DHT22;12036;50.858;4.472;2022-11-15T00:21:46;12.30;99.90
23715;DHT22;12036;50.858;4.472;2022-11-15T00:24:12;12.40;99.90
23715;DHT22;12036;50.858;4.472;2022-11-15T00:26:38;12.30;99.90
23715;DHT22;12036;50.858;4.472;2022-11-15T00:29:03;12.30;99.90
23715;DHT22;12036;50.858;4.472;2022-11-15T00:31:29;12.40;99.90
23715;DHT22;12036;50.858;4.472;2022-11-15T00:33:54;12.30;99.90
23715;DHT22;12036;50.858;4.472;2022-11-15T00:36:20;12.30;99.90
23715;DHT22;12036;50.858;4.472;2022-11-15T00:38:46;12.30;99.90
23715;DHT22;12036;50.858;4.472;2022-11-15T00:41:11;12.30;99.90
23715;DHT22;12036;50.858;4.472;2022-11-15T00:43:37;12.30;99.90
23715;DHT22;12036;50.858;4.472;2022-11-15T00:46:05;12.30;99.90
23715;DHT22;12036;50.858;4.472;2022-11-15T00:48:31;12.40;99.90
23715;DHT22;12036;50.858;4.472;2022-11-15T00:50:57;12.40;99.90
23715;DHT22;12036;50.858;4.472;2022-11-15T00:53:23;12.50;99.90
23715;DHT22;12036;50.858;4.472;2022-11-15T00:55:48;12.50;99.90
23715;DHT22;12036;50.858;4.472;2022-11-15T00:58:14;12.50;99.90
23715;DHT22;12036;50.858;4.472;2022-11-15T01:00:39;12.50;99.90
23715;DHT22;12036;50.858;4.472;2022-11-15T01:03:05;12.40;99.90
23715;DHT22;12036;50.858;4.472;2022-11-15T01:05:31;12.50;99.90
23715;DHT22;12036;50.858;4.472;2022-11-15T01:07:56;12.50;99.90
23715;DHT22;12036;50.858;4.472;2022-11-15T01:10:23;12.50;99.90
23715;DHT22;12036;50.858;4.472;2022-11-15T01:12:49;12.50;99.90
23715;DHT22;12036;50.858;4.472;2022-11-15T01:15:15;12.50;99.90
23715;DHT22;12036;50.858;4.472;2022-11-15T01:17:41;12.50;99.90
23715;DHT22;12036;50.858;4.472;2022-11-15T01:20:07;12.50;99.90
23715;DHT22;12036;50.858;4.472;2022-11-15T01:22:33;12.60;99.90
23715;DHT22;12036;50.858;4.472;2022-11-15T01:24:59;12.60;99.90
23715;DHT22;12036;50.858;4.472;2022-11-15T01:27:24;12.60;99.90
23715;DHT22;12036;50.858;4.472;2022-11-15T01:29:50;12.60;99.90
23715;DHT22;12036;50.858;4.472;2022-11-15T01:32:16;12.60;99.90
23715;DHT22;12036;50.858;4.472;2022-11-15T01:34:42;12.70;99.90
23715;DHT22;12036;50.858;4.472;2022-11-15T01:37:07;12.70;99.90
23715;DHT22;12036;50.858;4.472;2022-11-15T01:39:33;12.70;99.90
23715;DHT22;12036;50.858;4.472;2022-11-15T01:41:59;12.50;99.90
23715;DHT22;12036;50.858;4.472;2022-11-15T01:46:56;12.50;99.90
23715;DHT22;12036;50.858;4.472;2022-11-15T01:49:23;12.40;99.90
23715;DHT22;12036;50.858;4.472;2022-11-15T01:51:50;12.40;99.90
23715;DHT22;12036;50.858;4.472;2022-11-15T01:54:20;12.30;99.90
23715;DHT22;12036;50.858;4.472;2022-11-15T01:56:52;12.30;99.90
23715;DHT22;12036;50.858;4.472;2022-11-15T01:59:19;12.30;99.90
23715;DHT22;12036;50.858;4.472;2022-11-15T02:01:45;12.40;99.90
23715;DHT22;12036;50.858;4.472;2022-11-15T02:04:24;12.40;99.90
23715;DHT22;12036;50.858;4.472;2022-11-15T02:06:51;12.50;99.90
23715;DHT22;12036;50.858;4.472;2022-11-15T02:09:17;12.50;99.90
23715;DHT22;12036;50.858;4.472;2022-11-15T02:11:44;12.50;99.90
23715;DHT22;12036;50.858;4.472;2022-11-15T02:14:11;12.50;99.90
23715;DHT22;12036;50.858;4.472;2022-11-15T02:22:29;12.60;99.90
23715;DHT22;12036;50.858;4.472;2022-11-15T02:30:44;12.50;99.90
23715;DHT22;12036;50.858;4.472;2022-11-15T02:33:26;12.50;99.90
23715;DHT22;12036;50.858;4.472;2022-11-15T02:36:00;12.60;99.90
23715;DHT22;12036;50.858;4.472;2022-11-15T02:41:08;12.50;99.90
23715;DHT22;12036;50.858;4.472;2022-11-15T02:49:14;12.60;99.90
23715;DHT22;12036;50.858;4.472;2022-11-15T02:51:40;12.50;99.90
23715;DHT22;12036;50.858;4.472;2022-11-15T02:54:07;12.50;99.90
23715;DHT22;12036;50.858;4.472;2022-11-15T02:56:35;12.50;99.90
23715;DHT22;12036;50.858;4.472;2022-11-15T03:07:16;12.40;99.90
23715;DHT22;12036;50.858;4.472;2022-11-15T03:10:01;12.50;99.90
23715;DHT22;12036;50.858;4.472;2022-11-15T03:12:39;12.40;99.90
23715;DHT22;12036;50.858;4.472;2022-11-15T03:15:21;12.40;99.90
23715;DHT22;12036;50.858;4.472;2022-11-15T03:18:04;12.50;99.90
23715;DHT22;12036;50.858;4.472;2022-11-15T03:20:32;12.50;99.90
23715;DHT22;12036;50.858;4.472;2022-11-15T03:23:08;12.50;99.90
23715;DHT22;12036;50.858;4.472;2022-11-15T03:25:36;12.40;99.90
23715;DHT22;12036;50.858;4.472;2022-11-15T03:28:05;12.50;99.90
23715;DHT22;12036;50.858;4.472;2022-11-15T03:30:34;12.40;99.90
23715;DHT22;12036;50.858;4.472;2022-11-15T03:33:04;12.40;99.90
23715;DHT22;12036;50.858;4.472;2022-11-15T03:35:40;12.50;99.90
23715;DHT22;12036;50.858;4.472;2022-11-15T03:38:26;12.40;99.90
23715;DHT22;12036;50.858;4.472;2022-11-15T03:41:07;12.40;99.90
23715;DHT22;12036;50.858;4.472;2022-11-15T03:43:42;12.40;99.90
23715;DHT22;12036;50.858;4.472;2022-11-15T03:46:19;12.40;99.90
23715;DHT22;12036;50.858;4.472;2022-11-15T03:48:51;12.50;99.90
23715;DHT22;12036;50.858;4.472;2022-11-15T03:51:17;12.40;99.90
23715;DHT22;12036;50.858;4.472;2022-11-15T03:53:43;12.30;99.90
23715;DHT22;12036;50.858;4.472;2022-11-15T03:56:09;12.30;99.90
23715;DHT22;12036;50.858;4.472;2022-11-15T03:58:35;12.30;99.90
23715;DHT22;12036;50.858;4.472;2022-11-15T04:01:00;12.20;99.90
23715;DHT22;12036;50.858;4.472;2022-11-15T04:03:26;12.20;99.90
23715;DHT22;12036;50.858;4.472;2022-11-15T04:05:52;12.20;99.90
23715;DHT22;12036;50.858;4.472;2022-11-15T04:08:17;12.20;99.90
23715;DHT22;12036;50.858;4.472;2022-11-15T04:10:43;12.30;99.90
23715;DHT22;12036;50.858;4.472;2022-11-15T04:13:09;12.30;99.90
23715;DHT22;12036;50.858;4.472;2022-11-15T04:15:35;12.20;99.90
23715;DHT22;12036;50.858;4.472;2022-11-15T04:18:00;12.10;99.90
23715;DHT22;12036;50.858;4.472;2022-11-15T04:20:29;12.10;99.90
23715;DHT22;12036;50.858;4.472;2022-11-15T04:23:18;12.10;99.90
23715;DHT22;12036;50.858;4.472;2022-11-15T04:26:06;12.10;99.90
23715;DHT22;12036;50.858;4.472;2022-11-15T04:28:33;12.00;99.90
23715;DHT22;12036;50.858;4.472;2022-11-15T04:30:59;12.10;99.90
23715;DHT22;12036;50.858;4.472;2022-11-15T04:33:24;12.10;99.90
23715;DHT22;12036;50.858;4.472;2022-11-15T04:35:50;12.00;99.90
23715;DHT22;12036;50.858;4.472;2022-11-15T04:38:36;12.10;99.90
23715;DHT22;12036;50.858;4.472;2022-11-15T04:41:03;12.00;99.90
23715;DHT22;12036;50.858;4.472;2022-11-15T04:43:29;12.00;99.90
23715;DHT22;12036;50.858;4.472;2022-11-15T04:45:55;12.00;99.90
23715;DHT22;12036;50.858;4.472;2022-11-15T04:48:20;12.00;99.90
23715;DHT22;12036;50.858;4.472;2022-11-15T04:50:48;11.90;99.90
23715;DHT22;12036;50.858;4.472;2022-11-15T04:53:13;11.80;99.90
23715;DHT22;12036;50.858;4.472;2022-11-15T04:55:39;11.70;99.90
23715;DHT22;12036;50.858;4.472;2022-11-15T04:58:05;11.60;99.90
23715;DHT22;12036;50.858;4.472;2022-11-15T05:00:30;11.60;99.90
23715;DHT22;12036;50.858;4.472;2022-11-15T05:02:57;11.60;99.90
23715;DHT22;12036;50.858;4.472;2022-11-15T05:05:54;11.60;99.90
23715;DHT22;12036;50.858;4.472;2022-11-15T05:08:20;11.50;99.90
23715;DHT22;12036;50.858;4.472;2022-11-15T05:10:46;11.40;99.90
23715;DHT22;12036;50.858;4.472;2022-11-15T05:13:12;11.50;99.90
23715;DHT22;12036;50.858;4.472;2022-11-15T05:15:38;11.40;99.90
23715;DHT22;12036;50.858;4.472;2022-11-15T05:18:04;11.40;99.90
23715;DHT22;12036;50.858;4.472;2022-11-15T05:20:29;11.40;99.90
23715;DHT22;12036;50.858;4.472;2022-11-15T05:22:55;11.40;99.90
23715;DHT22;12036;50.858;4.472;2022-11-15T05:25:22;11.40;99.90
23715;DHT22;12036;50.858;4.472;2022-11-15T05:27:48;11.30;99.90
23715;DHT22;12036;50.858;4.472;2022-11-15T05:30:14;11.30;99.90
23715;DHT22;12036;50.858;4.472;2022-11-15T05:32:40;11.30;99.90
23715;DHT22;12036;50.858;4.472;2022-11-15T05:35:07;11.30;99.90
23715;DHT22;12036;50.858;4.472;2022-11-15T05:37:34;11.20;99.90
23715;DHT22;12036;50.858;4.472;2022-11-15T05:39:59;11.10;99.90
23715;DHT22;12036;50.858;4.472;2022-11-15T05:42:25;11.10;99.90
23715;DHT22;12036;50.858;4.472;2022-11-15T05:44:52;11.10;99.90
23715;DHT22;12036;50.858;4.472;2022-11-15T05:47:21;11.10;99.90
23715;DHT22;12036;50.858;4.472;2022-11-15T05:49:49;11.10;99.90
23715;DHT22;12036;50.858;4.472;2022-11-15T05:52:20;11.10;99.90
23715;DHT22;12036;50.858;4.472;2022-11-15T05:54:48;11.10;99.90
23715;DHT22;12036;50.858;4.472;2022-11-15T05:57:14;11.00;99.90
23715;DHT22;12036;50.858;4.472;2022-11-15T05:59:40;11.00;99.90
23715;DHT22;12036;50.858;4.472;2022-11-15T06:02:06;10.90;99.90
23715;DHT22;12036;50.858;4.472;2022-11-15T06:04:32;10.90;99.90
23715;DHT22;12036;50.858;4.472;2022-11-15T06:06:58;10.80;99.90
23715;DHT22;12036;50.858;4.472;2022-11-15T06:09:24;10.80;99.90
23715;DHT22;12036;50.858;4.472;2022-11-15T06:11:50;10.80;99.90
23715;DHT22;12036;50.858;4.472;2022-11-15T06:14:15;10.80;99.90
23715;DHT22;12036;50.858;4.472;2022-11-15T06:16:41;10.70;99.90
23715;DHT22;12036;50.858;4.472;2022-11-15T06:19:07;10.70;99.90
23715;DHT22;12036;50.858;4.472;2022-11-15T06:21:33;10.60;99.90
23715;DHT22;12036;50.858;4.472;2022-11-15T06:23:58;10.60;99.90
23715;DHT22;12036;50.858;4.472;2022-11-15T06:26:24;10.60;99.90
23715;DHT22;12036;50.858;4.472;2022-11-15T06:28:50;10.50;99.90
23715;DHT22;12036;50.858;4.472;2022-11-15T06:31:15;10.50;99.90
23715;DHT22;12036;50.858;4.472;2022-11-15T06:33:41;10.50;99.90
23715;DHT22;12036;50.858;4.472;2022-11-15T06:36:12;10.50;99.90
23715;DHT22;12036;50.858;4.472;2022-11-15T06:38:46;10.40;99.90
23715;DHT22;12036;50.858;4.472;2022-11-15T06:41:13;10.40;99.90
23715;DHT22;12036;50.858;4.472;2022-11-15T06:43:39;10.30;99.90
23715;DHT22;12036;50.858;4.472;2022-11-15T06:46:06;10.30;99.90
23715;DHT22;12036;50.858;4.472;2022-11-15T06:48:33;10.30;99.90
23715;DHT22;12036;50.858;4.472;2022-11-15T06:51:00;10.20;99.90
23715;DHT22;12036;50.858;4.472;2022-11-15T06:53:27;10.20;99.90
23715;DHT22;12036;50.858;4.472;2022-11-15T06:55:56;10.10;99.90
23715;DHT22;12036;50.858;4.472;2022-11-15T06:58:23;10.10;99.90
23715;DHT22;12036;50.858;4.472;2022-11-15T07:00:48;10.00;99.90
23715;DHT22;12036;50.858;4.472;2022-11-15T07:03:14;10.00;99.90
23715;DHT22;12036;50.858;4.472;2022-11-15T07:05:40;10.00;99.90
23715;DHT22;12036;50.858;4.472;2022-11-15T07:08:05;10.00;99.90
23715;DHT22;12036;50.858;4.472;2022-11-15T07:10:31;10.00;99.90
23715;DHT22;12036;50.858;4.472;2022-11-15T07:12:56;10.00;99.90
23715;DHT22;12036;50.858;4.472;2022-11-15T07:15:26;10.00;99.90
23715;DHT22;12036;50.858;4.472;2022-11-15T07:17:51;10.00;99.90
23715;DHT22;12036;50.858;4.472;2022-11-15T07:20:18;10.00;99.90
23715;DHT22;12036;50.858;4.472;2022-11-15T07:22:44;10.00;99.90
23715;DHT22;12036;50.858;4.472;2022-11-15T07:25:12;10.00;99.90
23715;DHT22;12036;50.858;4.472;2022-11-15T07:27:38;10.10;99.90
23715;DHT22;12036;50.858;4.472;2022-11-15T07:30:04;10.10;99.90
23715;DHT22;12036;50.858;4.472;2022-11-15T07:32:30;10.10;99.90
23715;DHT22;12036;50.858;4.472;2022-11-15T07:34:56;10.20;99.90
23715;DHT22;12036;50.858;4.472;2022-11-15T07:37:21;10.20;99.90
23715;DHT22;12036;50.858;4.472;2022-11-15T07:39:47;10.20;99.90
23715;DHT22;12036;50.858;4.472;2022-11-15T07:42:13;10.20;99.90
23715;DHT22;12036;50.858;4.472;2022-11-15T07:45:17;10.10;99.90
23715;DHT22;12036;50.858;4.472;2022-11-15T07:47:45;10.20;99.90
23715;DHT22;12036;50.858;4.472;2022-11-15T07:50:11;10.20;99.90
23715;DHT22;12036;50.858;4.472;2022-11-15T07:52:37;10.30;99.90
23715;DHT22;12036;50.858;4.472;2022-11-15T07:55:02;10.30;99.90
23715;DHT22;12036;50.858;4.472;2022-11-15T07:57:29;10.20;99.90
23715;DHT22;12036;50.858;4.472;2022-11-15T07:59:55;10.30;99.90
23715;DHT22;12036;50.858;4.472;2022-11-15T08:02:21;10.30;99.90
23715;DHT22;12036;50.858;4.472;2022-11-15T08:04:46;10.30;99.90
23715;DHT22;12036;50.858;4.472;2022-11-15T08:07:12;10.50;99.90
23715;DHT22;12036;50.858;4.472;2022-11-15T08:09:38;10.50;99.90
23715;DHT22;12036;50.858;4.472;2022-11-15T08:12:04;10.60;99.90
23715;DHT22;12036;50.858;4.472;2022-11-15T08:14:29;10.80;99.90
23715;DHT22;12036;50.858;4.472;2022-11-15T08:16:55;10.80;99.90
23715;DHT22;12036;50.858;4.472;2022-11-15T08:19:21;10.80;99.90
23715;DHT22;12036;50.858;4.472;2022-11-15T08:21:46;10.80;99.90
23715;DHT22;12036;50.858;4.472;2022-11-15T08:24:12;11.00;99.90
23715;DHT22;12036;50.858;4.472;2022-11-15T08:26:38;11.00;99.90
23715;DHT22;12036;50.858;4.472;2022-11-15T08:29:05;11.10;99.90
23715;DHT22;12036;50.858;4.472;2022-11-15T08:31:31;11.20;99.90
23715;DHT22;12036;50.858;4.472;2022-11-15T08:33:56;11.10;99.90
23715;DHT22;12036;50.858;4.472;2022-11-15T08:36:22;11.10;99.90
23715;DHT22;12036;50.858;4.472;2022-11-15T08:38:48;11.10;99.90
23715;DHT22;12036;50.858;4.472;2022-11-15T08:41:34;11.10;99.90
23715;DHT22;12036;50.858;4.472;2022-11-15T08:44:01;11.10;99.90
23715;DHT22;12036;50.858;4.472;2022-11-15T08:46:26;11.10;99.90
23715;DHT22;12036;50.858;4.472;2022-11-15T08:48:52;11.20;99.90
23715;DHT22;12036;50.858;4.472;2022-11-15T08:51:18;11.20;99.90
23715;DHT22;12036;50.858;4.472;2022-11-15T08:53:44;11.30;99.90
23715;DHT22;12036;50.858;4.472;2022-11-15T08:56:11;11.40;99.90
23715;DHT22;12036;50.858;4.472;2022-11-15T08:58:37;11.40;99.90
23715;DHT22;12036;50.858;4.472;2022-11-15T09:01:04;11.30;99.90
23715;DHT22;12036;50.858;4.472;2022-11-15T09:03:30;11.40;99.90
23715;DHT22;12036;50.858;4.472;2022-11-15T09:05:57;11.40;99.90
23715;DHT22;12036;50.858;4.472;2022-11-15T09:08:24;11.30;99.90
23715;DHT22;12036;50.858;4.472;2022-11-15T09:10:50;11.40;99.90
23715;DHT22;12036;50.858;4.472;2022-11-15T09:13:15;11.40;99.90
23715;DHT22;12036;50.858;4.472;2022-11-15T09:15:41;11.40;99.90
23715;DHT22;12036;50.858;4.472;2022-11-15T09:18:07;11.40;99.90
23715;DHT22;12036;50.858;4.472;2022-11-15T09:20:33;11.50;99.90
23715;DHT22;12036;50.858;4.472;2022-11-15T09:23:03;11.50;99.90
23715;DHT22;12036;50.858;4.472;2022-11-15T09:25:29;11.60;99.90
23715;DHT22;12036;50.858;4.472;2022-11-15T09:27:55;11.60;99.90
23715;DHT22;12036;50.858;4.472;2022-11-15T09:30:21;11.60;99.90
23715;DHT22;12036;50.858;4.472;2022-11-15T09:32:47;11.70;99.90
23715;DHT22;12036;50.858;4.472;2022-11-15T09:35:13;11.70;99.90
23715;DHT22;12036;50.858;4.472;2022-11-15T09:37:38;11.80;99.90
23715;DHT22;12036;50.858;4.472;2022-11-15T09:40:04;11.70;99.90
23715;DHT22;12036;50.858;4.472;2022-11-15T09:42:47;11.80;99.90
23715;DHT22;12036;50.858;4.472;2022-11-15T09:48:21;11.90;99.90
23715;DHT22;12036;50.858;4.472;2022-11-15T09:50:51;11.90;99.90
23715;DHT22;12036;50.858;4.472;2022-11-15T09:53:46;11.90;99.90
23715;DHT22;12036;50.858;4.472;2022-11-15T09:56:21;12.10;99.90
23715;DHT22;12036;50.858;4.472;2022-11-15T09:58:56;12.10;99.90
23715;DHT22;12036;50.858;4.472;2022-11-15T10:03:56;12.40;99.90
23715;DHT22;12036;50.858;4.472;2022-11-15T10:06:26;12.30;99.90
23715;DHT22;12036;50.858;4.472;2022-11-15T10:11:28;12.40;99.90
23715;DHT22;12036;50.858;4.472;2022-11-15T10:14:01;12.50;99.90
23715;DHT22;12036;50.858;4.472;2022-11-15T10:16:40;12.50;99.90
23715;DHT22;12036;50.858;4.472;2022-11-15T10:22:46;12.50;99.90
23715;DHT22;12036;50.858;4.472;2022-11-15T10:25:34;12.60;99.90
23715;DHT22;12036;50.858;4.472;2022-11-15T10:30:49;12.60;99.90
23715;DHT22;12036;50.858;4.472;2022-11-15T10:33:26;12.60;99.90
23715;DHT22;12036;50.858;4.472;2022-11-15T10:36:17;12.70;99.90
23715;DHT22;12036;50.858;4.472;2022-11-15T10:46:36;13.20;99.90
23715;DHT22;12036;50.858;4.472;2022-11-15T10:51:56;13.20;99.90
23715;DHT22;12036;50.858;4.472;2022-11-15T10:54:23;13.30;99.90
23715;DHT22;12036;50.858;4.472;2022-11-15T10:56:56;13.30;99.90
23715;DHT22;12036;50.858;4.472;2022-11-15T10:59:31;13.30;99.90
23715;DHT22;12036;50.858;4.472;2022-11-15T11:01:59;13.40;99.90
23715;DHT22;12036;50.858;4.472;2022-11-15T11:04:25;13.50;99.90
23715;DHT22;12036;50.858;4.472;2022-11-15T11:06:59;13.50;99.90
23715;DHT22;12036;50.858;4.472;2022-11-15T11:09:36;13.50;99.90
23715;DHT22;12036;50.858;4.472;2022-11-15T11:12:05;13.40;99.90
23715;DHT22;12036;50.858;4.472;2022-11-15T11:14:36;13.50;99.90
23715;DHT22;12036;50.858;4.472;2022-11-15T11:20:04;13.50;99.90
23715;DHT22;12036;50.858;4.472;2022-11-15T11:25:28;13.60;99.90
23715;DHT22;12036;50.858;4.472;2022-11-15T11:33:24;13.60;99.90
23715;DHT22;12036;50.858;4.472;2022-11-15T11:36:27;13.70;99.90
23715;DHT22;12036;50.858;4.472;2022-11-15T11:44:30;13.90;99.90
23715;DHT22;12036;50.858;4.472;2022-11-15T11:49:51;14.10;99.90
23715;DHT22;12036;50.858;4.472;2022-11-15T11:52:25;14.00;99.90
23715;DHT22;12036;50.858;4.472;2022-11-15T11:54:54;14.10;99.90
23715;DHT22;12036;50.858;4.472;2022-11-15T11:57:48;14.00;99.90
23715;DHT22;12036;50.858;4.472;2022-11-15T12:00:24;14.10;99.90
23715;DHT22;12036;50.858;4.472;2022-11-15T12:05:39;14.10;99.90
23715;DHT22;12036;50.858;4.472;2022-11-15T12:11:04;14.10;99.90
23715;DHT22;12036;50.858;4.472;2022-11-15T12:13:33;14.00;99.90
23715;DHT22;12036;50.858;4.472;2022-11-15T12:18:33;13.90;99.90
23715;DHT22;12036;50.858;4.472;2022-11-15T12:21:07;13.80;99.90
23715;DHT22;12036;50.858;4.472;2022-11-15T12:23:48;13.90;99.90
23715;DHT22;12036;50.858;4.472;2022-11-15T12:26:20;13.80;99.90
23715;DHT22;12036;50.858;4.472;2022-11-15T12:29:05;13.80;99.90
23715;DHT22;12036;50.858;4.472;2022-11-15T12:34:03;13.70;99.90
23715;DHT22;12036;50.858;4.472;2022-11-15T12:36:42;13.70;99.90
23715;DHT22;12036;50.858;4.472;2022-11-15T12:39:09;13.70;99.90
23715;DHT22;12036;50.858;4.472;2022-11-15T12:41:38;13.70;99.90
23715;DHT22;12036;50.858;4.472;2022-11-15T12:44:04;13.80;99.90
23715;DHT22;12036;50.858;4.472;2022-11-15T12:59:56;14.10;99.90
23715;DHT22;12036;50.858;4.472;2022-11-15T13:04:54;14.30;99.90
23715;DHT22;12036;50.858;4.472;2022-11-15T13:15:34;14.70;99.90
23715;DHT22;12036;50.858;4.472;2022-11-15T13:20:54;14.70;99.90
23715;DHT22;12036;50.858;4.472;2022-11-15T13:23:21;14.60;99.90
23715;DHT22;12036;50.858;4.472;2022-11-15T13:26:12;14.50;99.90
23715;DHT22;12036;50.858;4.472;2022-11-15T13:28:45;14.60;99.90
23715;DHT22;12036;50.858;4.472;2022-11-15T13:33:57;14.50;99.90
23715;DHT22;12036;50.858;4.472;2022-11-15T13:36:31;14.50;99.90
23715;DHT22;12036;50.858;4.472;2022-11-15T13:39:23;14.30;99.90
23715;DHT22;12036;50.858;4.472;2022-11-15T13:41:51;14.40;99.90
23715;DHT22;12036;50.858;4.472;2022-11-15T13:44:22;14.50;99.90
23715;DHT22;12036;50.858;4.472;2022-11-15T13:46:48;14.40;99.90
23715;DHT22;12036;50.858;4.472;2022-11-15T13:49:14;14.30;99.90
23715;DHT22;12036;50.858;4.472;2022-11-15T13:54:24;14.30;99.90
23715;DHT22;12036;50.858;4.472;2022-11-15T13:59:49;14.40;99.90
23715;DHT22;12036;50.858;4.472;2022-11-15T14:02:18;14.40;99.90
23715;DHT22;12036;50.858;4.472;2022-11-15T14:04:57;14.50;99.90
23715;DHT22;12036;50.858;4.472;2022-11-15T14:07:26;14.50;99.90
23715;DHT22;12036;50.858;4.472;2022-11-15T14:09:52;14.50;99.90
23715;DHT22;12036;50.858;4.472;2022-11-15T14:14:47;14.50;99.90
23715;DHT22;12036;50.858;4.472;2022-11-15T14:19:54;14.40;99.90
23715;DHT22;12036;50.858;4.472;2022-11-15T14:22:23;14.40;99.90
23715;DHT22;12036;50.858;4.472;2022-11-15T14:25:15;14.30;99.90
23715;DHT22;12036;50.858;4.472;2022-11-15T14:27:43;14.10;99.90
23715;DHT22;12036;50.858;4.472;2022-11-15T14:30:18;13.90;99.90
23715;DHT22;12036;50.858;4.472;2022-11-15T14:32:49;13.90;99.90
23715;DHT22;12036;50.858;4.472;2022-11-15T14:35:20;13.80;99.90
23715;DHT22;12036;50.858;4.472;2022-11-15T14:37:47;13.80;99.90
23715;DHT22;12036;50.858;4.472;2022-11-15T14:40:17;13.70;99.90
23715;DHT22;12036;50.858;4.472;2022-11-15T14:42:45;13.70;99.90
23715;DHT22;12036;50.858;4.472;2022-11-15T14:45:19;13.80;99.90
23715;DHT22;12036;50.858;4.472;2022-11-15T14:47:45;13.70;99.90
23715;DHT22;12036;50.858;4.472;2022-11-15T14:50:16;13.60;99.90
23715;DHT22;12036;50.858;4.472;2022-11-15T14:52:43;13.70;99.90
23715;DHT22;12036;50.858;4.472;2022-11-15T14:55:30;13.60;99.90
23715;DHT22;12036;50.858;4.472;2022-11-15T14:58:02;13.60;99.90
23715;DHT22;12036;50.858;4.472;2022-11-15T15:00:29;13.50;99.90
23715;DHT22;12036;50.858;4.472;2022-11-15T15:02:55;13.50;99.90
23715;DHT22;12036;50.858;4.472;2022-11-15T15:05:29;13.40;99.90
23715;DHT22;12036;50.858;4.472;2022-11-15T15:07:55;13.40;99.90
23715;DHT22;12036;50.858;4.472;2022-11-15T15:10:21;13.40;99.90
23715;DHT22;12036;50.858;4.472;2022-11-15T15:12:47;13.40;99.90
23715;DHT22;12036;50.858;4.472;2022-11-15T15:15:29;13.40;99.90
23715;DHT22;12036;50.858;4.472;2022-11-15T15:17:56;13.40;99.90
23715;DHT22;12036;50.858;4.472;2022-11-15T15:20:22;13.30;99.90
23715;DHT22;12036;50.858;4.472;2022-11-15T15:22:47;13.20;99.90
23715;DHT22;12036;50.858;4.472;2022-11-15T15:27:46;13.10;99.90
23715;DHT22;12036;50.858;4.472;2022-11-15T15:30:12;13.00;99.90
23715;DHT22;12036;50.858;4.472;2022-11-15T15:32:38;13.00;99.90
23715;DHT22;12036;50.858;4.472;2022-11-15T15:35:04;12.90;99.90
23715;DHT22;12036;50.858;4.472;2022-11-15T15:37:30;12.90;99.90
23715;DHT22;12036;50.858;4.472;2022-11-15T15:39:58;12.80;99.90
23715;DHT22;12036;50.858;4.472;2022-11-15T15:42:24;12.80;99.90
23715;DHT22;12036;50.858;4.472;2022-11-15T15:44:50;12.70;99.90
23715;DHT22;12036;50.858;4.472;2022-11-15T15:47:21;12.50;99.90
23715;DHT22;12036;50.858;4.472;2022-11-15T15:49:48;12.60;99.90
23715;DHT22;12036;50.858;4.472;2022-11-15T15:52:14;12.50;99.90
23715;DHT22;12036;50.858;4.472;2022-11-15T15:54:40;12.40;99.90
23715;DHT22;12036;50.858;4.472;2022-11-15T15:57:06;12.40;99.90
23715;DHT22;12036;50.858;4.472;2022-11-15T15:59:33;12.40;99.90
23715;DHT22;12036;50.858;4.472;2022-11-15T16:01:58;12.30;99.90
23715;DHT22;12036;50.858;4.472;2022-11-15T16:04:24;12.30;99.90
23715;DHT22;12036;50.858;4.472;2022-11-15T16:06:50;12.30;99.90
23715;DHT22;12036;50.858;4.472;2022-11-15T16:09:19;12.30;99.90
23715;DHT22;12036;50.858;4.472;2022-11-15T16:12:05;12.20;99.90
23715;DHT22;12036;50.858;4.472;2022-11-15T16:14:31;12.20;99.90
23715;DHT22;12036;50.858;4.472;2022-11-15T16:16:57;12.20;99.90
23715;DHT22;12036;50.858;4.472;2022-11-15T16:19:23;12.20;99.90
23715;DHT22;12036;50.858;4.472;2022-11-15T16:21:48;12.20;99.90
23715;DHT22;12036;50.858;4.472;2022-11-15T16:24:14;12.20;99.90
23715;DHT22;12036;50.858;4.472;2022-11-15T16:26:40;12.20;99.90
23715;DHT22;12036;50.858;4.472;2022-11-15T16:29:06;12.10;99.90
23715;DHT22;12036;50.858;4.472;2022-11-15T16:31:32;12.20;99.90
23715;DHT22;12036;50.858;4.472;2022-11-15T16:33:57;12.20;99.90
23715;DHT22;12036;50.858;4.472;2022-11-15T16:36:25;12.20;99.90
23715;DHT22;12036;50.858;4.472;2022-11-15T16:38:51;12.20;99.90
23715;DHT22;12036;50.858;4.472;2022-11-15T16:41:18;12.20;99.90
23715;DHT22;12036;50.858;4.472;2022-11-15T16:43:47;12.10;99.90
23715;DHT22;12036;50.858;4.472;2022-11-15T16:46:24;12.20;99.90
23715;DHT22;12036;50.858;4.472;2022-11-15T16:48:51;12.10;99.90
23715;DHT22;12036;50.858;4.472;2022-11-15T16:51:16;12.10;99.90
23715;DHT22;12036;50.858;4.472;2022-11-15T16:53:43;12.20;99.90
23715;DHT22;12036;50.858;4.472;2022-11-15T16:58:43;12.10;99.90
23715;DHT22;12036;50.858;4.472;2022-11-15T17:01:21;12.10;99.90
23715;DHT22;12036;50.858;4.472;2022-11-15T17:03:47;12.10;99.90
23715;DHT22;12036;50.858;4.472;2022-11-15T17:06:13;12.10;99.90
23715;DHT22;12036;50.858;4.472;2022-11-15T17:08:40;12.20;99.90
23715;DHT22;12036;50.858;4.472;2022-11-15T17:11:10;12.20;99.90
23715;DHT22;12036;50.858;4.472;2022-11-15T17:13:38;12.30;99.90
23715;DHT22;12036;50.858;4.472;2022-11-15T17:16:09;12.20;99.90
23715;DHT22;12036;50.858;4.472;2022-11-15T17:18:36;12.30;99.90
23715;DHT22;12036;50.858;4.472;2022-11-15T17:21:07;12.30;99.90
23715;DHT22;12036;50.858;4.472;2022-11-15T17:23:33;12.30;99.90
23715;DHT22;12036;50.858;4.472;2022-11-15T17:26:00;12.30;99.90
23715;DHT22;12036;50.858;4.472;2022-11-15T17:28:28;12.30;99.90
23715;DHT22;12036;50.858;4.472;2022-11-15T17:30:53;12.30;99.90
23715;DHT22;12036;50.858;4.472;2022-11-15T17:33:19;12.30;99.90
23715;DHT22;12036;50.858;4.472;2022-11-15T17:35:44;12.30;99.90
23715;DHT22;12036;50.858;4.472;2022-11-15T17:38:10;12.30;99.90
23715;DHT22;12036;50.858;4.472;2022-11-15T17:40:36;12.30;99.90
23715;DHT22;12036;50.858;4.472;2022-11-15T17:43:04;12.30;99.90
23715;DHT22;12036;50.858;4.472;2022-11-15T17:45:30;12.30;99.90
23715;DHT22;12036;50.858;4.472;2022-11-15T17:47:56;12.30;99.90
23715;DHT22;12036;50.858;4.472;2022-11-15T17:50:21;12.30;99.90
23715;DHT22;12036;50.858;4.472;2022-11-15T17:52:47;12.30;99.90